Bear Town, Mississippi
Current Conditions -  °F | °C
As of 2:53 AM on Saturday 22 Nov 2014 (Local Time) from KMCB Reporting Station
Clear Clear  
Wind Chill: 51°   Ceiling: Unl
Heat Index: 51°   Visibility: 10mi
Dew Point: 45°   Wind: 3mph
Humidity: 80%   Direction: 110°ESE
Pressure: 30.24"   Gusts: NA
Location:  31.1693°N, 90.3678°W
Report Text: KMCB 220853Z AUTO 11003KT 10SM CLR 11/07 A3024 RMK AO2 SLP238 T01060072 58008
Loading
Personal Weather Stations






























Interactive Weather Map New forecast layout! Learn more

10-Day Weather Forecast

Advertisements
Track Severe Weather on mobile